Time;durP1;ratioP1;P1;durP2;ratioP2;P2;SDS_P1;SDS_P2;PMS_P1;PMS_P2;Temp;Humidity;BMP_temperature;BMP_pressure;BME280_temperature;BME280_humidity;BME280_pressure;Samples;Min_cycle;Max_cycle;Signal;HPM_P1;HPM_P2
2024/04/21 00:00:44;;;;;;;6.63;3.47;;;9.30;99.90;;;;;;5416889;26;20231;-60
2024/04/21 00:03:10;;;;;;;6.80;3.83;;;9.30;99.90;;;;;;5445492;26;20238;-60
2024/04/21 00:05:36;;;;;;;5.20;3.30;;;9.40;99.90;;;;;;5452013;26;20238;-60
2024/04/21 00:08:02;;;;;;;8.53;3.47;;;9.40;99.90;;;;;;5421578;26;20218;-60
2024/04/21 00:10:29;;;;;;;7.90;3.40;;;9.30;99.90;;;;;;5450591;26;20604;-59
2024/04/21 00:12:55;;;;;;;6.70;3.23;;;9.30;99.90;;;;;;5452699;26;20443;-59
2024/04/21 00:15:20;;;;;;;10.70;3.77;;;9.30;99.90;;;;;;5386083;26;20514;-60
2024/04/21 00:17:46;;;;;;;2.90;2.73;;;9.30;99.90;;;;;;5449652;26;20520;-59
2024/04/21 00:20:12;;;;;;;5.70;3.27;;;9.20;99.90;;;;;;5453297;26;20285;-60
2024/04/21 00:22:37;;;;;;;3.77;3.40;;;9.30;99.90;;;;;;5451762;26;20267;-59
2024/04/21 00:25:04;;;;;;;13.53;3.97;;;9.30;99.90;;;;;;5452679;26;20235;-60
2024/04/21 00:27:30;;;;;;;6.37;3.20;;;9.20;99.90;;;;;;5452277;26;20230;-59
2024/04/21 00:29:55;;;;;;;6.17;3.33;;;9.20;99.90;;;;;;5420859;26;20445;-60
2024/04/21 00:32:21;;;;;;;4.27;3.23;;;9.20;99.90;;;;;;5452830;26;20604;-60
2024/04/21 00:34:50;;;;;;;4.17;3.50;;;9.20;99.90;;;;;;5419785;26;20240;-59
2024/04/21 00:37:16;;;;;;;5.87;3.60;;;9.20;99.90;;;;;;5452793;26;20360;-60
2024/04/21 00:39:41;;;;;;;10.33;3.60;;;9.10;99.90;;;;;;5451894;26;20829;-59
2024/04/21 00:42:07;;;;;;;6.07;3.80;;;9.10;99.90;;;;;;5451906;26;20263;-60
2024/04/21 00:44:33;;;;;;;3.53;3.20;;;9.20;99.90;;;;;;5451885;26;20278;-59
2024/04/21 00:46:59;;;;;;;8.53;3.23;;;9.00;99.90;;;;;;5452067;26;20223;-59
2024/04/21 00:49:25;;;;;;;6.67;3.30;;;9.00;99.90;;;;;;5451951;26;20230;-60
2024/04/21 00:51:51;;;;;;;4.83;3.50;;;9.00;99.90;;;;;;5420091;26;20453;-60
2024/04/21 00:54:17;;;;;;;3.37;2.73;;;9.00;99.90;;;;;;5452168;26;20841;-60
2024/04/21 00:56:43;;;;;;;6.70;4.00;;;9.00;99.90;;;;;;5451483;26;20223;-59
2024/04/21 00:59:11;;;;;;;6.23;3.20;;;9.00;99.90;;;;;;5452125;26;20558;-60
2024/04/21 01:01:37;;;;;;;9.40;3.27;;;9.00;99.90;;;;;;5451287;26;20443;-59
2024/04/21 01:04:04;;;;;;;8.20;3.20;;;9.00;99.90;;;;;;5452376;26;20429;-60
2024/04/21 01:06:30;;;;;;;4.57;3.30;;;9.00;99.90;;;;;;5451830;26;20506;-60
2024/04/21 01:08:55;;;;;;;6.33;3.00;;;9.00;99.90;;;;;;5452052;26;20449;-60
2024/04/21 01:11:21;;;;;;;7.10;3.37;;;9.10;99.90;;;;;;5451590;26;20827;-59
2024/04/21 01:13:47;;;;;;;5.10;2.97;;;9.00;99.90;;;;;;5451554;26;20280;-60
2024/04/21 01:16:14;;;;;;;8.27;3.53;;;9.00;99.90;;;;;;5451858;26;20978;-60
2024/04/21 01:18:40;;;;;;;3.20;2.93;;;9.00;99.90;;;;;;5450400;26;20523;-59
2024/04/21 01:21:06;;;;;;;8.10;3.10;;;9.00;99.90;;;;;;5453581;26;20835;-60
2024/04/21 01:23:32;;;;;;;3.67;3.10;;;8.90;99.90;;;;;;5454190;26;20445;-59
2024/04/21 01:25:57;;;;;;;6.80;3.63;;;8.90;99.90;;;;;;5455480;26;20449;-60
2024/04/21 01:28:23;;;;;;;4.63;3.30;;;8.90;99.90;;;;;;5454676;26;20279;-60
2024/04/21 01:30:49;;;;;;;6.13;3.50;;;8.90;99.90;;;;;;5454175;26;20335;-59
2024/04/21 01:33:15;;;;;;;6.10;3.40;;;8.90;99.90;;;;;;5455424;26;20564;-60
2024/04/21 01:35:42;;;;;;;8.00;3.80;;;8.90;99.90;;;;;;5454090;26;20281;-59
2024/04/21 01:38:08;;;;;;;6.03;3.57;;;8.80;99.90;;;;;;5454949;26;20238;-59
2024/04/21 01:40:33;;;;;;;6.97;3.10;;;8.90;99.90;;;;;;5454638;26;20561;-59
2024/04/21 01:42:59;;;;;;;4.47;3.47;;;8.90;99.90;;;;;;5454960;26;20243;-59
2024/04/21 01:45:25;;;;;;;6.33;3.37;;;8.80;99.90;;;;;;5455643;26;20623;-60
2024/04/21 01:47:51;;;;;;;7.20;3.47;;;8.80;99.90;;;;;;5453818;26;20276;-59
2024/04/21 01:50:16;;;;;;;7.00;2.87;;;8.80;99.90;;;;;;5455356;26;20254;-60
2024/04/21 01:52:42;;;;;;;7.90;3.50;;;8.80;99.90;;;;;;5454096;26;20272;-59
2024/04/21 01:55:08;;;;;;;7.83;3.60;;;8.80;99.90;;;;;;5455128;26;20496;-60
2024/04/21 01:57:35;;;;;;;5.50;3.30;;;8.80;99.90;;;;;;5453444;26;20638;-59
2024/04/21 02:00:01;;;;;;;8.13;3.77;;;8.80;99.90;;;;;;5454868;26;20233;-60
2024/04/21 02:02:27;;;;;;;5.50;3.10;;;8.80;99.90;;;;;;5454916;26;20510;-60
2024/04/21 02:04:53;;;;;;;3.70;2.83;;;8.70;99.90;;;;;;5453774;26;21036;-60
2024/04/21 02:07:18;;;;;;;5.57;2.60;;;8.80;99.90;;;;;;5454294;26;20222;-60
2024/04/21 02:09:44;;;;;;;7.40;3.20;;;8.70;99.90;;;;;;5454282;26;20265;-59
2024/04/21 02:12:10;;;;;;;6.13;2.77;;;8.70;99.90;;;;;;5453901;26;20653;-60
2024/04/21 02:14:35;;;;;;;4.77;2.77;;;8.70;99.90;;;;;;5453441;26;20231;-59
2024/04/21 02:17:01;;;;;;;10.87;3.40;;;8.70;99.90;;;;;;5454517;26;20284;-60
2024/04/21 02:19:27;;;;;;;7.77;2.80;;;8.60;99.90;;;;;;5454429;26;20237;-60
2024/04/21 02:21:53;;;;;;;12.03;2.90;;;8.70;99.90;;;;;;5453495;26;20561;-60
2024/04/21 02:24:20;;;;;;;5.40;3.40;;;8.50;99.90;;;;;;5454808;26;20280;-60
2024/04/21 02:26:46;;;;;;;6.70;3.13;;;8.50;99.90;;;;;;5453311;26;20726;-59
2024/04/21 02:29:11;;;;;;;6.23;3.70;;;8.50;99.90;;;;;;5453850;26;20491;-60
2024/04/21 02:31:37;;;;;;;4.57;3.30;;;8.50;99.90;;;;;;5453480;26;20257;-59
2024/04/21 02:34:03;;;;;;;5.97;3.00;;;8.50;99.90;;;;;;5453299;26;20330;-60
2024/04/21 02:36:28;;;;;;;3.00;2.67;;;8.50;99.90;;;;;;5422700;26;20221;-60
2024/04/21 02:38:54;;;;;;;4.30;2.93;;;8.50;99.90;;;;;;5453773;26;20313;-60
2024/04/21 02:41:20;;;;;;;6.10;2.87;;;8.50;99.90;;;;;;5453886;26;20226;-60
2024/04/21 02:43:46;;;;;;;5.60;2.83;;;8.40;99.90;;;;;;5453587;26;20481;-59
2024/04/21 02:46:12;;;;;;;4.33;3.03;;;8.40;99.90;;;;;;5454187;26;20281;-60
2024/04/21 02:48:37;;;;;;;6.17;4.60;;;8.30;99.90;;;;;;5452725;26;20264;-59
2024/04/21 02:51:04;;;;;;;3.97;2.97;;;8.40;99.90;;;;;;5454751;26;20428;-60
2024/04/21 02:53:29;;;;;;;3.70;3.07;;;8.30;99.90;;;;;;5453953;26;20272;-59
2024/04/21 02:55:55;;;;;;;3.30;2.80;;;8.30;99.90;;;;;;5453168;26;20435;-59
2024/04/21 02:58:21;;;;;;;3.80;3.40;;;8.30;99.90;;;;;;5454194;26;20270;-60
2024/04/21 03:00:46;;;;;;;3.60;2.93;;;8.20;99.90;;;;;;5451267;26;20234;-60
2024/04/21 03:03:12;;;;;;;5.47;3.33;;;8.20;99.90;;;;;;5453688;26;20233;-60
2024/04/21 03:05:38;;;;;;;6.70;3.10;;;8.20;99.90;;;;;;5453542;26;20678;-60
2024/04/21 03:08:04;;;;;;;5.07;3.80;;;8.20;99.90;;;;;;5453513;26;20346;-60
2024/04/21 03:10:30;;;;;;;6.27;3.00;;;8.10;99.90;;;;;;5453676;26;20752;-60
2024/04/21 03:12:56;;;;;;;3.33;3.13;;;8.10;99.90;;;;;;5453529;26;20480;-60
2024/04/21 03:15:21;;;;;;;8.33;3.67;;;8.10;99.90;;;;;;5453796;26;20602;-60
2024/04/21 03:17:47;;;;;;;3.43;2.90;;;8.10;99.90;;;;;;5420879;26;20509;-59
2024/04/21 03:20:13;;;;;;;5.40;3.50;;;8.10;99.90;;;;;;5454033;26;20468;-60
2024/04/21 03:22:39;;;;;;;3.83;3.17;;;8.00;99.90;;;;;;5452696;26;20451;-59
2024/04/21 03:25:05;;;;;;;3.63;3.33;;;8.00;99.90;;;;;;5453094;26;20294;-60
2024/04/21 03:27:31;;;;;;;3.80;3.50;;;8.00;99.90;;;;;;5453992;26;20264;-60
2024/04/21 03:29:56;;;;;;;5.07;3.13;;;8.10;99.90;;;;;;5452448;26;20955;-59
2024/04/21 03:32:22;;;;;;;5.50;3.40;;;8.10;99.90;;;;;;5453379;26;20718;-60
2024/04/21 03:34:57;;;;;;;3.97;3.07;;;8.10;99.90;;;;;;5452461;26;20276;-60
2024/04/21 03:37:23;;;;;;;3.67;3.37;;;8.10;99.90;;;;;;5451929;26;20290;-60
2024/04/21 03:39:49;;;;;;;8.50;3.37;;;8.20;99.90;;;;;;5452425;26;20562;-59
2024/04/21 03:42:15;;;;;;;5.50;3.10;;;8.20;99.90;;;;;;5453694;26;20213;-60
2024/04/21 03:44:40;;;;;;;4.70;2.97;;;8.20;99.90;;;;;;5452128;26;20503;-59
2024/04/21 03:47:06;;;;;;;3.10;2.27;;;8.20;99.90;;;;;;5452975;26;20234;-60
2024/04/21 03:49:32;;;;;;;7.33;3.30;;;8.20;99.90;;;;;;5453540;26;20235;-60
2024/04/21 03:51:57;;;;;;;5.87;2.93;;;8.20;99.90;;;;;;5452076;26;20272;-59
2024/04/21 03:54:24;;;;;;;5.77;2.43;;;8.20;99.90;;;;;;5421710;26;20230;-60
2024/04/21 03:56:50;;;;;;;3.20;2.90;;;8.00;99.90;;;;;;5420890;26;20611;-59
2024/04/21 03:59:15;;;;;;;4.60;2.77;;;8.00;99.90;;;;;;5452815;26;20437;-59
2024/04/21 04:01:45;;;;;;;2.57;2.47;;;8.00;99.90;;;;;;5452253;26;20233;-59
2024/04/21 04:04:11;;;;;;;5.93;3.17;;;8.00;99.90;;;;;;5417485;26;20289;-60
2024/04/21 04:06:37;;;;;;;3.33;2.43;;;8.00;99.90;;;;;;5443466;26;20975;-60
2024/04/21 04:09:03;;;;;;;4.57;2.73;;;7.90;99.90;;;;;;5452486;26;20230;-60
2024/04/21 04:11:28;;;;;;;4.10;2.10;;;7.90;99.90;;;;;;5453134;26;20503;-60
2024/04/21 04:13:54;;;;;;;4.37;2.90;;;7.90;99.90;;;;;;5452246;26;20694;-59
2024/04/21 04:16:20;;;;;;;3.80;3.03;;;7.90;99.90;;;;;;5452754;26;20222;-60
2024/04/21 04:18:45;;;;;;;4.27;2.60;;;7.90;99.90;;;;;;5435314;26;20239;-59
2024/04/21 04:21:11;;;;;;;4.47;3.00;;;7.90;99.90;;;;;;5417341;26;20342;-60
2024/04/21 04:23:37;;;;;;;6.17;3.43;;;7.80;99.90;;;;;;5416906;26;20225;-60
2024/04/21 04:26:03;;;;;;;5.47;2.60;;;7.80;99.90;;;;;;5416554;26;20317;-60
2024/04/21 04:28:28;;;;;;;3.70;2.50;;;7.80;99.90;;;;;;5416749;26;20231;-60
2024/04/21 04:30:54;;;;;;;5.43;3.03;;;7.80;99.90;;;;;;5416161;26;20595;-59
2024/04/21 04:33:20;;;;;;;5.10;2.90;;;7.80;99.90;;;;;;5417051;26;20288;-60
2024/04/21 04:35:45;;;;;;;6.33;3.30;;;7.80;99.90;;;;;;5415837;26;20230;-59
2024/04/21 04:38:11;;;;;;;5.13;2.97;;;7.70;99.90;;;;;;5416645;26;20324;-60
2024/04/21 04:40:37;;;;;;;2.80;2.60;;;7.70;99.90;;;;;;5416679;26;20765;-60
2024/04/21 04:43:03;;;;;;;4.03;2.40;;;7.70;99.90;;;;;;5416126;26;20731;-60
2024/04/21 04:45:28;;;;;;;8.20;3.00;;;7.70;99.90;;;;;;5416721;26;20230;-60
2024/04/21 04:47:54;;;;;;;5.03;3.17;;;7.70;99.90;;;;;;5415015;26;20517;-59
2024/04/21 04:50:20;;;;;;;3.20;2.63;;;7.70;99.90;;;;;;5416631;26;20231;-60
2024/04/21 04:52:46;;;;;;;2.53;2.33;;;7.60;99.90;;;;;;5415506;26;20227;-59
2024/04/21 04:55:14;;;;;;;5.20;2.70;;;7.60;99.90;;;;;;5416243;26;20281;-60
2024/04/21 04:57:40;;;;;;;3.37;2.83;;;7.60;99.90;;;;;;5416550;26;20284;-60
2024/04/21 05:00:06;;;;;;;6.17;2.63;;;7.60;99.90;;;;;;5415474;26;20453;-60
2024/04/21 05:02:32;;;;;;;3.33;3.03;;;7.60;99.90;;;;;;5416778;26;20231;-60
2024/04/21 05:04:57;;;;;;;3.40;2.40;;;7.60;99.90;;;;;;5384332;26;20837;-60
2024/04/21 05:07:23;;;;;;;5.80;2.90;;;7.60;99.90;;;;;;5416501;26;20235;-59
2024/04/21 05:09:49;;;;;;;4.50;2.93;;;7.60;99.90;;;;;;5384561;26;20258;-59
2024/04/21 05:12:15;;;;;;;2.67;2.47;;;7.50;99.90;;;;;;5385083;26;20250;-59
2024/04/21 05:14:42;;;;;;;3.50;2.37;;;7.60;99.90;;;;;;5416228;26;20563;-61
2024/04/21 05:17:08;;;;;;;5.23;2.80;;;7.50;99.90;;;;;;5414748;26;20293;-61
2024/04/21 05:19:33;;;;;;;4.53;3.50;;;7.60;99.90;;;;;;5445418;26;20451;-61
2024/04/21 05:21:59;;;;;;;7.97;2.70;;;7.50;99.90;;;;;;5451088;26;20230;-61
2024/04/21 05:24:25;;;;;;;3.07;2.70;;;7.60;99.90;;;;;;5452193;26;20229;-61
2024/04/21 05:26:51;;;;;;;2.83;2.50;;;7.60;99.90;;;;;;5450710;26;20661;-61
2024/04/21 05:29:16;;;;;;;6.23;2.70;;;7.60;99.90;;;;;;5452209;26;20322;-61
2024/04/21 05:31:42;;;;;;;3.17;2.87;;;7.60;99.90;;;;;;5451684;26;20778;-61
2024/04/21 05:34:08;;;;;;;5.13;2.97;;;7.60;99.90;;;;;;5451153;26;20242;-61
2024/04/21 05:36:33;;;;;;;7.83;2.93;;;7.60;99.90;;;;;;5451984;26;20333;-61
2024/04/21 05:38:59;;;;;;;4.60;2.57;;;7.70;99.90;;;;;;5450982;26;20259;-61
2024/04/21 05:41:25;;;;;;;3.73;2.67;;;7.70;99.90;;;;;;5451525;26;20788;-61
2024/04/21 05:43:50;;;;;;;8.00;3.33;;;7.70;99.90;;;;;;5419724;26;20272;-61
2024/04/21 05:46:17;;;;;;;7.40;2.30;;;7.70;99.90;;;;;;5451486;26;20233;-61
2024/04/21 05:48:42;;;;;;;4.93;2.70;;;7.60;99.90;;;;;;5451453;26;20637;-61
2024/04/21 05:51:08;;;;;;;3.70;2.60;;;7.70;99.90;;;;;;5450953;26;20444;-61
2024/04/21 05:53:34;;;;;;;5.70;3.37;;;7.70;99.90;;;;;;5451518;26;20234;-61
2024/04/21 05:56:00;;;;;;;3.77;3.47;;;7.70;99.90;;;;;;5450623;26;20234;-61
2024/04/21 05:58:26;;;;;;;4.50;3.57;;;7.70;99.90;;;;;;5451324;26;20253;-61
2024/04/21 06:00:51;;;;;;;4.67;3.50;;;7.70;99.90;;;;;;5450521;26;20447;-61
2024/04/21 06:03:17;;;;;;;4.30;3.90;;;7.70;99.90;;;;;;5451307;26;20558;-61
2024/04/21 06:05:43;;;;;;;3.93;3.60;;;7.80;99.90;;;;;;5450902;26;20230;-62
2024/04/21 06:08:08;;;;;;;9.87;5.07;;;7.80;99.90;;;;;;5451677;26;20237;-61
2024/04/21 06:10:34;;;;;;;8.10;4.83;;;7.80;99.90;;;;;;5454132;26;20243;-61
2024/04/21 06:13:00;;;;;;;6.53;5.50;;;7.70;99.90;;;;;;5454199;26;20229;-61
2024/04/21 06:15:26;;;;;;;6.77;4.47;;;7.70;99.90;;;;;;5454894;26;20238;-61
2024/04/21 06:17:51;;;;;;;11.50;5.30;;;7.70;99.90;;;;;;5450315;26;20317;-61
2024/04/21 06:20:17;;;;;;;5.03;4.60;;;7.70;99.90;;;;;;5418943;26;20261;-61
2024/04/21 06:22:43;;;;;;;5.97;4.67;;;7.70;99.90;;;;;;5418374;26;20227;-61
2024/04/21 06:25:08;;;;;;;6.10;4.50;;;7.70;99.90;;;;;;5418588;26;20905;-61
2024/04/21 06:27:34;;;;;;;7.00;5.17;;;7.70;99.90;;;;;;5418750;26;20237;-61
2024/04/21 06:30:00;;;;;;;6.63;4.10;;;7.70;99.90;;;;;;5417827;26;20336;-61
2024/04/21 06:32:26;;;;;;;6.43;3.73;;;7.70;99.90;;;;;;5418348;26;20287;-62
2024/04/21 06:34:52;;;;;;;7.23;3.87;;;7.70;99.90;;;;;;5417912;26;20456;-61
2024/04/21 06:37:18;;;;;;;4.23;3.90;;;7.70;99.90;;;;;;5418299;26;20444;-62
2024/04/21 06:39:43;;;;;;;4.87;4.20;;;7.60;99.90;;;;;;5417683;26;20613;-61
2024/04/21 06:42:09;;;;;;;4.23;3.83;;;7.70;99.90;;;;;;5386333;26;20258;-61
2024/04/21 06:44:36;;;;;;;6.80;4.40;;;7.70;99.90;;;;;;5418065;26;20687;-61
2024/04/21 06:47:01;;;;;;;5.93;3.50;;;7.80;99.90;;;;;;5417749;26;20239;-61
2024/04/21 06:49:29;;;;;;;3.67;3.37;;;7.70;99.90;;;;;;5406117;26;20580;-61
2024/04/21 06:51:55;;;;;;;5.77;3.40;;;7.70;99.90;;;;;;5404008;26;20730;-61
2024/04/21 06:54:20;;;;;;;3.90;3.00;;;7.60;99.90;;;;;;5418850;26;20489;-61
2024/04/21 06:56:47;;;;;;;4.37;3.03;;;7.60;99.90;;;;;;5418652;26;20262;-61
2024/04/21 06:59:13;;;;;;;6.73;3.30;;;7.60;99.90;;;;;;5417815;26;20283;-61
2024/04/21 07:01:39;;;;;;;7.83;4.63;;;7.70;99.90;;;;;;5418407;26;20774;-61
2024/04/21 07:04:05;;;;;;;6.23;4.10;;;7.70;99.90;;;;;;5417312;26;20453;-61
2024/04/21 07:06:30;;;;;;;3.97;3.10;;;7.70;99.90;;;;;;5418315;26;20252;-61
2024/04/21 07:08:56;;;;;;;7.33;4.00;;;7.70;99.90;;;;;;5416843;26;20331;-61
2024/04/21 07:11:22;;;;;;;5.30;3.40;;;7.70;99.90;;;;;;5386843;26;20262;-61
2024/04/21 07:13:47;;;;;;;3.67;3.47;;;7.70;99.90;;;;;;5386558;26;20571;-61
2024/04/21 07:16:13;;;;;;;3.23;2.93;;;7.70;99.90;;;;;;5417393;26;20281;-61
2024/04/21 07:18:39;;;;;;;3.97;3.50;;;7.60;99.90;;;;;;5417206;26;20298;-62
2024/04/21 07:21:05;;;;;;;5.47;3.70;;;7.70;99.90;;;;;;5417352;26;20301;-61
2024/04/21 07:23:30;;;;;;;5.30;4.10;;;7.70;99.90;;;;;;5417376;26;20227;-62
2024/04/21 07:25:56;;;;;;;7.63;4.57;;;7.80;99.90;;;;;;5416874;26;20283;-61
2024/04/21 07:28:22;;;;;;;5.67;3.57;;;7.80;99.90;;;;;;5417936;26;20655;-61
2024/04/21 07:30:48;;;;;;;3.83;3.40;;;7.80;99.90;;;;;;5386670;26;20278;-61
2024/04/21 07:33:14;;;;;;;4.37;4.07;;;7.90;99.90;;;;;;5417435;26;20583;-61
2024/04/21 07:35:40;;;;;;;4.57;4.17;;;7.90;99.90;;;;;;5418091;26;20440;-61
2024/04/21 07:38:05;;;;;;;4.67;4.27;;;7.90;99.90;;;;;;5417245;26;20245;-61
2024/04/21 07:40:31;;;;;;;6.67;4.13;;;7.90;99.90;;;;;;5418077;26;20694;-61
2024/04/21 07:42:57;;;;;;;4.83;4.50;;;7.90;99.90;;;;;;5416699;26;20235;-61
2024/04/21 07:45:22;;;;;;;5.40;4.90;;;7.90;99.90;;;;;;5417654;26;20227;-61
2024/04/21 07:47:48;;;;;;;4.80;4.40;;;7.90;99.90;;;;;;5417778;26;20623;-61
2024/04/21 07:50:14;;;;;;;5.33;4.83;;;7.80;99.90;;;;;;5417220;26;20726;-61
2024/04/21 07:52:40;;;;;;;5.50;4.97;;;7.80;99.90;;;;;;5386343;26;20227;-64
2024/04/21 07:55:05;;;;;;;5.47;5.00;;;7.80;99.90;;;;;;5417090;26;20745;-62
2024/04/21 07:57:31;;;;;;;5.40;5.00;;;7.90;99.90;;;;;;5386442;26;20509;-63
2024/04/21 07:59:57;;;;;;;7.10;5.00;;;7.80;99.90;;;;;;5416361;26;20277;-63
2024/04/21 08:02:23;;;;;;;6.13;5.47;;;7.80;99.90;;;;;;5416913;26;20282;-62
2024/04/21 08:04:48;;;;;;;6.60;6.00;;;7.80;99.90;;;;;;5417057;26;20226;-62
2024/04/21 08:07:14;;;;;;;5.77;5.27;;;7.80;99.90;;;;;;5416422;26;20904;-61
2024/04/21 08:09:40;;;;;;;7.17;6.47;;;7.90;99.90;;;;;;5416672;26;20273;-62
2024/04/21 08:12:06;;;;;;;6.53;5.87;;;7.90;99.90;;;;;;5384796;26;20555;-62
2024/04/21 08:14:32;;;;;;;6.00;5.50;;;8.00;99.90;;;;;;5416809;26;20227;-61
2024/04/21 08:16:58;;;;;;;6.93;6.37;;;8.00;99.90;;;;;;5415828;26;20488;-62
2024/04/21 08:19:24;;;;;;;7.03;6.33;;;8.00;99.90;;;;;;5416371;26;20287;-62
2024/04/21 08:21:50;;;;;;;7.90;7.10;;;7.90;99.90;;;;;;5416949;26;20505;-61
2024/04/21 08:24:15;;;;;;;8.20;7.40;;;8.00;99.90;;;;;;5416150;26;20725;-62
2024/04/21 08:26:41;;;;;;;8.27;7.47;;;8.00;99.90;;;;;;5416751;26;20231;-62
2024/04/21 08:29:07;;;;;;;6.50;5.80;;;8.00;99.90;;;;;;5415984;26;20234;-61
2024/04/21 08:31:33;;;;;;;6.77;6.13;;;8.00;99.90;;;;;;5415783;26;20292;-61
2024/04/21 08:33:59;;;;;;;7.90;7.10;;;8.10;99.90;;;;;;5415939;26;20786;-62
2024/04/21 08:36:24;;;;;;;7.77;7.07;;;8.20;99.90;;;;;;5416095;26;20235;-62
2024/04/21 08:38:50;;;;;;;8.53;6.90;;;8.20;99.90;;;;;;5416556;26;20818;-62
2024/04/21 08:41:21;;;;;;;7.90;7.10;;;8.30;99.90;;;;;;5415831;26;20234;-62
2024/04/21 08:43:48;;;;;;;9.23;6.87;;;8.30;99.90;;;;;;5417108;26;20297;-62
2024/04/21 08:46:14;;;;;;;7.63;6.83;;;8.50;99.90;;;;;;5416043;26;20523;-61
2024/04/21 08:48:41;;;;;;;8.10;7.07;;;8.50;99.90;;;;;;5416184;26;20853;-61
2024/04/21 08:51:09;;;;;;;7.57;6.87;;;8.50;99.90;;;;;;5383856;26;20458;-61
2024/04/21 08:53:36;;;;;;;8.60;7.10;;;8.60;99.90;;;;;;5416805;26;20485;-62
2024/04/21 08:56:11;;;;;;;7.10;6.40;;;8.60;99.90;;;;;;5416166;26;20437;-62
2024/04/21 08:58:39;;;;;;;8.00;7.23;;;8.60;99.90;;;;;;5416352;26;20489;-62
2024/04/21 09:01:05;;;;;;;9.70;6.77;;;8.60;99.90;;;;;;5415633;26;21008;-61
2024/04/21 09:03:31;;;;;;;6.97;6.27;;;8.60;99.90;;;;;;5415997;26;20509;-62
2024/04/21 09:05:59;;;;;;;7.33;5.73;;;8.60;99.90;;;;;;5416477;26;20816;-61
2024/04/21 09:08:24;;;;;;;7.93;7.20;;;8.60;99.90;;;;;;5416630;26;20509;-61
2024/04/21 09:10:50;;;;;;;7.10;6.50;;;8.60;99.90;;;;;;5415694;26;20439;-62
2024/04/21 09:13:17;;;;;;;7.93;7.20;;;8.50;99.90;;;;;;5415904;26;20274;-62
2024/04/21 09:15:42;;;;;;;7.20;6.50;;;8.60;99.90;;;;;;5416477;26;20278;-64
2024/04/21 09:18:08;;;;;;;7.20;6.30;;;8.70;99.90;;;;;;5386029;26;20493;-63
2024/04/21 09:20:37;;;;;;;7.70;6.30;;;8.80;99.90;;;;;;5414572;26;20771;-65
2024/04/21 09:23:04;;;;;;;7.60;6.60;;;9.00;99.90;;;;;;5409434;26;20254;-63
2024/04/21 09:25:30;;;;;;;7.40;6.70;;;9.20;99.90;;;;;;5415501;26;20619;-63
2024/04/21 09:27:56;;;;;;;8.20;6.80;;;9.30;99.90;;;;;;5415511;26;20803;-64
2024/04/21 09:30:22;;;;;;;8.33;7.53;;;9.40;99.90;;;;;;5414573;26;20285;-62
2024/04/21 09:32:48;;;;;;;7.27;6.67;;;9.50;99.90;;;;;;5415076;26;20700;-62
2024/04/21 09:35:14;;;;;;;8.07;6.53;;;9.50;99.90;;;;;;5414375;26;20592;-67
2024/04/21 09:37:45;;;;;;;7.77;7.07;;;9.70;99.90;;;;;;5415481;26;20568;-64
2024/04/21 09:40:12;;;;;;;7.20;6.50;;;9.90;99.90;;;;;;5414913;26;20588;-64
2024/04/21 09:42:40;;;;;;;6.70;6.10;;;10.10;99.90;;;;;;5417782;26;20509;-64
2024/04/21 09:45:08;;;;;;;6.97;6.27;;;10.20;99.90;;;;;;5419030;26;21021;-63
2024/04/21 09:47:36;;;;;;;7.10;6.40;;;10.40;99.90;;;;;;5419287;26;20469;-64
2024/04/21 09:50:03;;;;;;;8.17;7.33;;;10.50;99.90;;;;;;5416579;26;20441;-63
2024/04/21 09:52:32;;;;;;;6.90;6.17;;;10.70;99.90;;;;;;5419306;26;20524;-64
2024/04/21 09:54:58;;;;;;;6.07;5.57;;;10.90;99.90;;;;;;5408242;26;20492;-63
2024/04/21 09:57:25;;;;;;;5.40;4.90;;;11.20;99.90;;;;;;5411155;26;20490;-64
2024/04/21 10:00:02;;;;;;;4.97;4.57;;;11.40;98.30;;;;;;5419372;26;20579;-64
2024/04/21 10:02:35;;;;;;;5.70;5.20;;;11.60;99.90;;;;;;5419747;26;20440;-63
2024/04/21 10:05:08;;;;;;;7.33;6.73;;;11.70;97.80;;;;;;5416230;26;20448;-64
2024/04/21 10:07:38;;;;;;;7.00;6.50;;;11.80;97.90;;;;;;5419407;26;21048;-64
2024/04/21 10:10:08;;;;;;;14.37;11.57;;;11.80;96.50;;;;;;5418491;26;20450;-63
2024/04/21 10:12:34;;;;;;;58.03;33.13;;;11.70;96.40;;;;;;5418865;26;20792;-65
2024/04/21 10:15:00;;;;;;;6.10;5.60;;;11.80;96.40;;;;;;5419179;26;20432;-65
2024/04/21 10:17:26;;;;;;;5.10;4.70;;;11.80;95.10;;;;;;5416719;26;20505;-67
2024/04/21 10:20:05;;;;;;;4.97;4.57;;;11.80;94.80;;;;;;5452095;26;20804;-65
2024/04/21 10:22:35;;;;;;;4.67;4.37;;;11.90;95.80;;;;;;5454585;26;20241;-64
2024/04/21 10:25:05;;;;;;;5.07;4.57;;;12.10;96.00;;;;;;5454803;26;20492;-64
2024/04/21 10:27:31;;;;;;;6.10;5.60;;;12.10;93.20;;;;;;5454866;26;20439;-65
2024/04/21 10:29:57;;;;;;;5.00;4.70;;;12.10;93.80;;;;;;5454829;26;20456;-64
2024/04/21 10:32:24;;;;;;;5.50;5.00;;;11.90;92.40;;;;;;5454180;26;20964;-64
2024/04/21 10:34:50;;;;;;;5.90;5.40;;;12.00;93.10;;;;;;5454355;26;20573;-65
2024/04/21 10:37:26;;;;;;;7.10;6.23;;;12.10;94.90;;;;;;5453373;26;20505;-64
2024/04/21 10:40:02;;;;;;;4.83;4.50;;;12.20;94.30;;;;;;5454725;26;20768;-65
2024/04/21 10:42:32;;;;;;;5.23;4.83;;;12.20;92.80;;;;;;5453728;26;20499;-64
2024/04/21 10:44:58;;;;;;;5.60;5.10;;;12.20;93.60;;;;;;5454636;26;20481;-65
2024/04/21 10:47:25;;;;;;;4.60;4.30;;;12.30;93.60;;;;;;5421560;26;20824;-64
2024/04/21 10:49:51;;;;;;;4.60;4.30;;;12.40;93.00;;;;;;5453979;26;20449;-64
2024/04/21 10:52:18;;;;;;;5.17;4.70;;;12.40;92.30;;;;;;5422226;26;20428;-64
2024/04/21 10:54:43;;;;;;;5.10;4.70;;;12.30;91.90;;;;;;5452707;26;20443;-63
2024/04/21 10:57:09;;;;;;;36.20;27.03;;;12.30;94.60;;;;;;5392166;26;20879;-64
2024/04/21 10:59:35;;;;;;;50.90;34.90;;;12.20;94.60;;;;;;5422250;26;20741;-64
2024/04/21 11:02:01;;;;;;;6.90;6.13;;;12.00;93.20;;;;;;5453440;26;20244;-65
2024/04/21 11:04:27;;;;;;;5.03;4.57;;;11.90;94.60;;;;;;5453090;26;20249;-64
2024/04/21 11:06:54;;;;;;;4.90;4.50;;;11.70;93.90;;;;;;5454258;26;20571;-65
2024/04/21 11:09:20;;;;;;;3.83;3.63;;;11.50;92.60;;;;;;5453393;26;20421;-64
2024/04/21 11:11:46;;;;;;;4.50;4.10;;;11.10;93.80;;;;;;5454169;26;20516;-64
2024/04/21 11:14:12;;;;;;;4.77;4.37;;;10.70;94.10;;;;;;5453651;26;20425;-64
2024/04/21 11:16:38;;;;;;;4.30;4.00;;;10.70;96.30;;;;;;5454089;26;20498;-65
2024/04/21 11:19:05;;;;;;;4.60;4.20;;;10.90;98.20;;;;;;5416300;26;20540;-65
2024/04/21 11:21:31;;;;;;;5.83;4.30;;;11.20;97.80;;;;;;5417409;26;20736;-65
2024/04/21 11:23:57;;;;;;;5.47;4.97;;;11.60;98.90;;;;;;5418053;26;20517;-65
2024/04/21 11:26:23;;;;;;;4.63;4.30;;;11.90;96.80;;;;;;5417478;26;20459;-64
2024/04/21 11:28:49;;;;;;;5.83;5.33;;;12.10;95.10;;;;;;5417989;26;20280;-67
2024/04/21 11:31:15;;;;;;;5.00;4.70;;;12.50;96.50;;;;;;5417449;26;21050;-63
2024/04/21 11:33:40;;;;;;;5.27;4.87;;;12.70;93.30;;;;;;5417960;26;20603;-63
2024/04/21 11:36:10;;;;;;;4.80;4.50;;;12.80;92.10;;;;;;5417920;26;20509;-64
2024/04/21 11:38:36;;;;;;;4.90;4.50;;;12.70;89.40;;;;;;5417779;26;20266;-64
2024/04/21 11:41:02;;;;;;;4.57;4.27;;;12.90;91.70;;;;;;5418092;26;20429;-64
2024/04/21 11:43:29;;;;;;;3.77;3.57;;;13.00;90.00;;;;;;5416981;26;20695;-64
2024/04/21 11:46:04;;;;;;;5.03;4.63;;;13.10;89.50;;;;;;5416330;26;20253;-64
2024/04/21 11:48:34;;;;;;;4.10;3.80;;;13.20;90.60;;;;;;5417109;26;20528;-63
2024/04/21 11:51:01;;;;;;;4.80;4.30;;;13.30;87.20;;;;;;5417842;26;20952;-64
2024/04/21 11:53:27;;;;;;;5.63;4.93;;;13.40;89.30;;;;;;5416658;26;20536;-62
2024/04/21 11:55:53;;;;;;;3.77;3.57;;;13.50;88.30;;;;;;5417710;26;20453;-62
2024/04/21 11:58:19;;;;;;;4.00;3.80;;;13.40;80.20;;;;;;5414342;26;20968;-62
2024/04/21 12:00:44;;;;;;;3.60;3.30;;;13.10;76.20;;;;;;5417025;26;20223;-62
2024/04/21 12:03:11;;;;;;;3.60;3.40;;;13.10;76.50;;;;;;5415502;26;20273;-63
2024/04/21 12:05:36;;;;;;;4.33;4.03;;;13.20;77.70;;;;;;5415868;26;20441;-64
2024/04/21 12:08:02;;;;;;;4.33;3.93;;;13.20;77.20;;;;;;5417347;26;20551;-64
2024/04/21 12:10:28;;;;;;;4.90;4.47;;;13.00;78.40;;;;;;5416812;26;20230;-64
2024/04/21 12:12:54;;;;;;;4.53;4.23;;;12.70;78.00;;;;;;5417463;26;20487;-64
2024/04/21 12:15:20;;;;;;;4.50;4.20;;;12.70;80.10;;;;;;5416670;26;20588;-63
2024/04/21 12:17:46;;;;;;;4.83;4.50;;;12.70;83.20;;;;;;5417106;26;20514;-63
2024/04/21 12:20:12;;;;;;;4.83;4.40;;;12.70;84.00;;;;;;5416875;26;20217;-63
2024/04/21 12:22:37;;;;;;;4.60;4.30;;;12.50;83.70;;;;;;5385925;26;20228;-64
2024/04/21 12:25:04;;;;;;;5.50;5.10;;;12.40;85.70;;;;;;5417177;26;20218;-64
2024/04/21 12:27:29;;;;;;;6.53;4.90;;;12.40;86.30;;;;;;5416376;26;20332;-63
2024/04/21 12:29:55;;;;;;;4.53;4.27;;;12.20;86.70;;;;;;5417372;26;20446;-64
2024/04/21 12:32:21;;;;;;;4.40;4.10;;;12.00;90.00;;;;;;5416572;26;20302;-63
2024/04/21 12:34:46;;;;;;;4.07;3.87;;;11.80;91.20;;;;;;5417195;26;20286;-64
2024/04/21 12:37:12;;;;;;;4.47;4.07;;;11.70;89.80;;;;;;5416452;26;20219;-63
2024/04/21 12:39:38;;;;;;;5.00;4.63;;;11.60;91.40;;;;;;5385907;26;20235;-64
2024/04/21 12:42:04;;;;;;;4.67;4.27;;;11.70;93.30;;;;;;5417084;26;20223;-62
2024/04/21 12:44:30;;;;;;;5.10;4.70;;;11.80;93.20;;;;;;5415905;26;20620;-62
2024/04/21 12:46:56;;;;;;;5.27;4.77;;;12.00;95.00;;;;;;5416055;26;20471;-62